Flight Track Log - Related Links

Times and Time Zones

All times are in EDT time to prevent confusion due to time zone crossing. See the N449ND flight status page for this flight to view local times or setup timezone preferences in your user account.

Time Position Orientation Groundspeed Altitude Reporting Facility
EDT Latitude Longitude Course Direction KTS MPH feet Rate Location/Type
Sun 11:22:34 AM 27.4972 -80.3547 152° Southeast 92 106 300  Level Miami Center
Sun 11:23:36 AM 27.4794 -80.3469 159° South 74 85 900 581 Climbing Miami Center
Sun 11:24:38 AM 27.4581 -80.3489 185° South 77 89 1,500 581 Climbing Miami Center
Sun 11:25:40 AM 27.4342 -80.3503 183° South 78 90 2,100 532 Climbing Miami Center
Sun 11:26:42 AM 27.4108 -80.3519 184° South 78 90 2,600 432 Climbing Miami Center
Sun 11:27:00 AM 27.4975 -80.3726 152° Southeast  Level Estimated
Sun 11:27:45 AM 27.3875 -80.3525 181° South 79 91 3,000  Level Miami Center
Sun 11:28:47 AM 27.3603 -80.3522 179° South 89 102 3,000  Level Miami Center
Sun 11:29:49 AM 27.3669 -80.3253 74° East 110 127 3,000  Level Miami Center
Sun 11:30:51 AM 27.3978 -80.3386 339° North 109 125 3,000  Level Miami Center
Sun 11:31:54 AM 27.4281 -80.3564 332° Northwest 113 130 3,000  Level Miami Center
Sun 11:32:56 AM 27.4578 -80.3736 333° Northwest 113 130 3,000  Level Miami Center
Sun 11:33:58 AM 27.4856 -80.3889 334° Northwest 114 131 3,000  Level Miami Center
Sun 11:35:00 AM 27.5167 -80.4036 337° Northwest 116 133 3,000  Level Miami Center
Sun 11:36:03 AM 27.5472 -80.4194 335° Northwest 116 133 3,000  Level Miami Center
Sun 11:37:05 AM 27.5706 -80.4419 319° Northwest 121 139 3,000  Level Miami Center
Sun 11:38:07 AM 27.5597 -80.4744 249° West 110 127 3,000  Level Miami Center
Sun 11:39:09 AM 27.5619 -80.5108 274° West 111 128 3,000  Level Miami Center
Sun 11:40:12 AM 27.5711 -80.5444 287° West 110 127 3,000 -192 Level Miami Center
Sun 11:41:14 AM 27.5881 -80.5747 302° West 110 127 2,600 -581 Descending Miami Center
Sun 11:42:16 AM 27.6108 -80.6003 315° West 110 127 1,800 -484 Descending Miami Center
Sun 11:43:18 AM 27.6389 -80.6172 332° Northwest 110 127 1,600 -144 Descending Miami Center
Sun 11:44:21 AM 27.6714 -80.6250 348° North 111 128 1,500 -48 Descending Miami Center
Sun 11:45:23 AM 27.7019 -80.6211 North 114 131 1,500  Level Miami Center
Sun 11:46:25 AM 27.7156 -80.5972 57° Northeast 103 119 1,500  Level Miami Center
Sun 11:47:27 AM 27.7061 -80.5669 109° East 103 119 1,500 -48 Level Miami Center
Sun 11:48:30 AM 27.6956 -80.5389 113° Southeast 97 112 1,400 -96 Descending Miami Center
Sun 11:49:32 AM 27.6853 -80.5089 111° Southeast 97 112 1,300 -145 Descending Miami Center
Sun 11:50:34 AM 27.6753 -80.4819 113° Southeast 91 105 1,100 -339 Descending Miami Center
Sun 11:51:36 AM 27.6678 -80.4547 107° East 87 100 600 -288 Descending Miami Center
Sun 11:52:39 AM 27.6592 -80.4308 112° Southeast 84 97 500 144 Descending Miami Center
Sun 11:53:41 AM 27.6528 -80.4044 105° East 83 96 900 435 Climbing Miami Center
Sun 11:54:43 AM 27.6506 -80.3789 96° East 85 98 1,400 532 Climbing Miami Center
Sun 11:55:45 AM 27.6483 -80.3525 95° East 84 97 2,000 528 Climbing Miami Center
Sun 11:56:48 AM 27.6447 -80.3250 98° East 84 97 2,500 528 Climbing Miami Center
Sun 11:57:50 AM 27.6417 -80.2975 97° East 84 97 3,100 532 Climbing Miami Center
Sun 11:58:52 AM 27.6394 -80.2700 95° East 84 97 3,600 435 Climbing Miami Center
Sun 11:59:54 AM 27.6197 -80.2603 156° South 88 101 4,000 240 Climbing Miami Center
Sun 12:00:57 PM 27.6072 -80.2917 246° West 108 124 4,100  Climbing Miami Center
Sun 12:01:59 PM 27.5914 -80.3244 241° Southwest 109 125 4,000 -48 Descending Miami Center
Sun 12:03:01 PM 27.5747 -80.3536 237° Southwest 108 124 4,000  Level Miami Center
Sun 12:04:04 PM 27.5631 -80.3819 245° Southwest 106 122 4,000  Level Miami Center
Sun 12:05:06 PM 27.5472 -80.4108 238° Southwest 105 121 4,000 48 Level Miami Center
Sun 12:06:08 PM 27.5314 -80.4408 239° Southwest 105 121 4,100 48 Climbing Miami Center
Sun 12:07:10 PM 27.5169 -80.4711 242° Southwest 105 121 4,100 -48 Level Miami Center
Sun 12:08:13 PM 27.5008 -80.5003 238° Southwest 106 122 4,000 -48 Descending Miami Center
Sun 12:09:15 PM 27.4881 -80.5297 244° Southwest 101 116 4,000  Level Miami Center
Sun 12:10:17 PM 27.4722 -80.5586 238° Southwest 102 117 4,000  Level Miami Center
Sun 12:11:20 PM 27.4575 -80.5872 240° Southwest 102 117 4,000 48 Level Miami Center
Sun 12:12:22 PM 27.4431 -80.6153 240° Southwest 102 117 4,100  Climbing Miami Center
Sun 12:13:24 PM 27.4281 -80.6444 240° Southwest 102 117 4,000  Descending Miami Center
Sun 12:14:26 PM 27.4147 -80.6694 239° Southwest 98 113 4,100 48 Climbing Miami Center
Sun 12:15:29 PM 27.4008 -80.6967 240° Southwest 98 113 4,100 -48 Level Miami Center
Sun 12:16:31 PM 27.4172 -80.7081 328° Northwest 104 120 4,000 -48 Descending Miami Center
Sun 12:17:33 PM 27.4336 -80.6836 53° Northeast 97 112 4,000  Level Miami Center
Sun 12:18:36 PM 27.4181 -80.6908 202° Southwest 101 116 4,000  Level Miami Center
Sun 12:19:38 PM 27.3986 -80.7108 222° Southwest 96 110 4,000  Level Miami Center
Sun 12:20:40 PM 27.4200 -80.7125 356° North 100 115 4,000  Level Miami Center
Sun 12:21:42 PM 27.4403 -80.6911 43° Northeast 97 112 4,000  Level Miami Center
Sun 12:22:45 PM 27.4411 -80.6683 88° East 96 110 4,000 48 Level Miami Center
Sun 12:23:47 PM 27.4211 -80.6842 215° Southwest 91 105 4,100  Climbing Miami Center
Sun 12:24:49 PM 27.3986 -80.7042 218° Southwest 97 112 4,000 -480 Descending Miami Center
Sun 12:25:52 PM 27.3772 -80.7278 224° Southwest 99 114 3,100 -912 Descending Miami Center
Sun 12:26:54 PM 27.3575 -80.7517 227° Southwest 99 114 2,100 -677 Descending Miami Center
Sun 12:27:56 PM 27.3375 -80.7719 222° Southwest 96 110 1,700 -290 Descending Miami Center
Sun 12:28:58 PM 27.3183 -80.7925 224° Southwest 95 109 1,500 -192 Descending Miami Center
Sun 12:30:01 PM 27.3003 -80.8128 225° Southwest 91 105 1,300 -48 Descending Miami Center
Sun 12:31:03 PM 27.2800 -80.8356 225° Southwest 97 112 1,400 48 Climbing Miami Center
Sun 12:32:05 PM 27.2600 -80.8567 223° Southwest 97 112 1,400 288 Level Miami Center
Sun 12:33:08 PM 27.2425 -80.8753 223° Southwest 94 108 2,000 432 Climbing Miami Center
Sun 12:34:10 PM 27.2239 -80.9006 230° Southwest 99 114 2,300 387 Climbing Miami Center
Sun 12:35:12 PM 27.2019 -80.9083 197° South 85 98 2,800 387 Climbing Miami Center
Sun 12:36:14 PM 27.2136 -80.8819 64° Northeast 97 112 3,100 96 Climbing Miami Center
Sun 12:37:17 PM 27.2386 -80.8608 37° Northeast 104 120 3,000 -48 Descending Miami Center
Sun 12:38:19 PM 27.2622 -80.8383 40° Northeast 107 123 3,000 48 Level Miami Center
Sun 12:39:21 PM 27.2867 -80.8183 36° Northeast 105 121 3,100  Climbing Miami Center
Sun 12:40:23 PM 27.3097 -80.7969 39° Northeast 105 121 3,000  Descending Miami Center
Sun 12:41:26 PM 27.3319 -80.7747 42° Northeast 105 121 3,100  Climbing Miami Center
Sun 12:42:28 PM 27.3567 -80.7542 36° Northeast 104 120 3,000 -48 Descending Miami Center
Sun 12:43:30 PM 27.3800 -80.7319 40° Northeast 105 121 3,000  Level Miami Center
Sun 12:44:32 PM 27.4019 -80.7125 38° Northeast 105 121 3,000 -144 Level Miami Center
Sun 12:45:35 PM 27.4308 -80.7022 18° North 111 128 2,700 -432 Descending Miami Center
Sun 12:46:37 PM 27.4619 -80.7086 350° North 113 130 2,100 -240 Descending Miami Center
Sun 12:47:40 PM 27.4922 -80.7142 351° North 110 127 2,200  Climbing Miami Center
Sun 12:48:42 PM 27.5233 -80.7178 354° North 105 121 2,100 -48 Descending Miami Center
Sun 12:49:44 PM 27.5439 -80.7047 29° Northeast 108 124 2,100  Level Miami Center
Sun 12:50:46 PM 27.5281 -80.6792 125° Southeast 100 115 2,100  Level Miami Center
Sun 12:51:49 PM 27.5142 -80.6497 118° Southeast 99 114 2,100  Level Miami Center
Sun 12:52:51 PM 27.5000 -80.6203 118° Southeast 99 114 2,100 -48 Level Miami Center
Sun 12:53:53 PM 27.4989 -80.5869 92° East 104 120 2,000 -97 Descending Miami Center
Sun 12:54:55 PM 27.4992 -80.5539 89° East 102 117 1,900 -48 Descending Miami Center
Sun 12:55:58 PM 27.4992 -80.5239 90° East 97 112 1,900  Level Miami Center
Sun 12:57:00 PM 27.4986 -80.4931 91° East 96 110 1,900 -242 Level Miami Center
Sun 12:58:02 PM 27.4981 -80.4636 91° East 97 112 1,400 -480 Descending Miami Center
Sun 12:59:05 PM 27.4972 -80.4319 92° East 100 115 900 -480 Descending Miami Center
Sun 01:00:07 PM 27.4975 -80.4017 89° East 97 112 400 -484 Descending Miami Center
Sun 01:02:00 PM 27.5184 -80.3877 31° Northeast  Level FlightAware
Sun 01:09:00 PM 27.5963 -80.3358 31° Northeast  Level FlightAware
Sun 01:10:00 PM 27.6066 -80.3300 24° Northeast  Level FlightAware
Sun 01:11:00 PM 27.6185 -80.3241 24° Northeast  Level FlightAware
Sun 01:12:00 PM 27.6303 -80.3182 24° Northeast  Level FlightAware
Sun 01:13:00 PM 27.6276 -80.3253 233° Southwest  Level FlightAware
Sun 01:14:00 PM 27.6199 -80.3370 233° Southwest  Level FlightAware
Sun 01:15:00 PM 27.6121 -80.3486 233° Southwest  Level FlightAware
Sun 01:16:00 PM 27.6044 -80.3603 233° Southwest  Level FlightAware
Sun 01:17:00 PM 27.5966 -80.3719 233° Southwest  Level FlightAware
Sun 01:18:00 PM 27.5889 -80.3836 233° Southwest  Level FlightAware
Sun 01:19:00 PM 27.5811 -80.3952 233° Southwest  Level FlightAware
Sun 01:20:00 PM 27.5734 -80.4069 233° Southwest  Level FlightAware
Sun 01:21:00 PM 27.5656 -80.4185 233° Southwest  Level FlightAware
Sun 01:22:00 PM 27.5578 -80.4302 233° Southwest  Level FlightAware
Sun 01:23:00 PM 27.5501 -80.4418 233° Southwest  Level FlightAware
Sun 01:24:00 PM 27.5423 -80.4534 233° Southwest  Level FlightAware
Sun 01:25:00 PM 27.5346 -80.4651 233° Southwest  Level FlightAware
Sun 01:26:00 PM 27.5268 -80.4767 233° Southwest  Level FlightAware
Sun 01:27:00 PM 27.5190 -80.4884 233° Southwest  Level FlightAware
Sun 01:28:00 PM 27.5113 -80.5000 233° Southwest  Level FlightAware
Sun 01:29:00 PM 27.5035 -80.5116 233° Southwest  Level FlightAware
Sun 01:30:00 PM 27.4958 -80.5233 233° Southwest  Level FlightAware
Sun 01:31:00 PM 27.4880 -80.5349 233° Southwest  Level FlightAware
Sun 01:32:00 PM 27.4802 -80.5465 233° Southwest  Level FlightAware
Sun 01:33:00 PM 27.4725 -80.5582 233° Southwest  Level FlightAware
Sun 01:34:00 PM 27.4647 -80.5698 233° Southwest  Level FlightAware
Sun 01:35:00 PM 27.4569 -80.5814 233° Southwest  Level FlightAware
Sun 01:36:00 PM 27.4492 -80.5930 233° Southwest  Level FlightAware
Sun 01:37:00 PM 27.4414 -80.6046 233° Southwest  Level FlightAware

Login

Don't have an account? Register now (free) for customized features, flight alerts, and more!